Time;durP1;ratioP1;P1;durP2;ratioP2;P2;SDS_P1;SDS_P2;PMS_P1;PMS_P2;Temp;Humidity;BMP_temperature;BMP_pressure;BME280_temperature;BME280_humidity;BME280_pressure;Samples;Min_cycle;Max_cycle;Signal;HPM_P1;HPM_P2
2021/01/30 00:00:20;;;;;;;24.13;4.57;;;;;;;11.59;67.83;98971.00;4990749;28;20035;-84
2021/01/30 00:02:45;;;;;;;16.35;4.43;;;;;;;11.63;68.08;98961.00;4990988;28;20441;-84
2021/01/30 00:05:11;;;;;;;21.67;5.10;;;;;;;11.57;67.59;98965.06;4992211;28;20027;-84
2021/01/30 00:07:36;;;;;;;21.25;4.53;;;;;;;11.58;66.94;98968.53;4992045;28;20034;-84
2021/01/30 00:10:03;;;;;;;24.10;4.68;;;;;;;11.65;67.24;98959.06;4992219;28;20030;-84
2021/01/30 00:12:28;;;;;;;23.40;4.65;;;;;;;11.61;67.31;98962.94;4993615;28;20033;-84
2021/01/30 00:14:54;;;;;;;29.15;4.72;;;;;;;11.61;66.69;98958.53;4995813;28;20018;-84
2021/01/30 00:17:19;;;;;;;26.75;4.45;;;;;;;11.64;67.10;98942.47;4994299;28;20401;-84
2021/01/30 00:19:45;;;;;;;24.02;4.57;;;;;;;11.66;66.90;98942.31;4995808;28;20045;-84
2021/01/30 00:22:13;;;;;;;24.15;4.60;;;;;;;11.54;66.97;98939.06;4995487;28;20065;-84
2021/01/30 00:24:46;;;;;;;35.40;5.43;;;;;;;11.65;66.61;98935.38;4995840;28;20033;-84
2021/01/30 00:27:21;;;;;;;25.00;4.45;;;;;;;11.61;66.95;98924.38;4993914;28;20100;-84
2021/01/30 00:29:48;;;;;;;23.42;5.18;;;;;;;11.55;67.19;98918.84;4995499;28;20030;-84
2021/01/30 00:32:15;;;;;;;26.63;4.15;;;;;;;11.51;67.26;98906.03;5003260;28;20473;-84
2021/01/30 00:34:42;;;;;;;23.30;4.90;;;;;;;11.56;66.88;98895.06;4995555;28;20022;-84
2021/01/30 00:37:13;;;;;;;25.92;5.47;;;;;;;11.44;67.98;98894.44;4995399;28;20053;-84
2021/01/30 00:39:39;;;;;;;18.95;4.57;;;;;;;11.34;67.96;98877.88;4995041;28;20110;-84
2021/01/30 00:42:07;;;;;;;24.05;4.50;;;;;;;11.51;66.79;98869.22;5012978;28;20038;-84
2021/01/30 00:44:32;;;;;;;24.50;4.85;;;;;;;11.52;66.41;98860.34;5013515;28;20037;-84
2021/01/30 00:46:58;;;;;;;21.80;4.25;;;;;;;11.49;67.40;98854.56;5015068;28;20030;-84
2021/01/30 00:49:23;;;;;;;20.52;4.55;;;;;;;11.59;67.31;98849.22;5013970;28;20468;-84
2021/01/30 00:51:49;;;;;;;24.40;4.50;;;;;;;11.55;67.51;98840.81;5014570;28;20025;-84
2021/01/30 00:54:15;;;;;;;20.85;3.97;;;;;;;11.41;67.40;98836.88;5014603;28;20477;-84
2021/01/30 00:56:40;;;;;;;21.42;5.05;;;;;;;11.54;66.71;98830.47;4996581;28;20069;-84
2021/01/30 00:59:07;;;;;;;27.83;5.78;;;;;;;11.49;66.80;98821.22;4995016;28;20495;-84
2021/01/30 01:01:39;;;;;;;19.00;3.35;;;;;;;11.51;66.98;98806.13;4994739;28;20026;-84
2021/01/30 01:04:05;;;;;;;20.67;4.65;;;;;;;11.56;67.23;98807.50;4994871;28;20034;-84
2021/01/30 01:06:32;;;;;;;23.80;3.55;;;;;;;11.59;67.30;98797.50;4994680;28;20030;-83
2021/01/30 01:08:57;;;;;;;17.52;3.42;;;;;;;11.63;67.71;98798.84;4994697;28;20022;-84
2021/01/30 01:11:23;;;;;;;32.55;4.80;;;;;;;11.42;68.48;98782.56;5007480;28;20117;-83
2021/01/30 01:13:48;;;;;;;16.00;5.30;;;;;;;11.38;68.03;98783.81;4994849;28;20027;-83
2021/01/30 01:16:14;;;;;;;23.67;5.43;;;;;;;11.55;67.25;98779.53;4994559;28;20048;-83
2021/01/30 01:18:39;;;;;;;25.02;4.50;;;;;;;11.49;67.71;98773.94;4994323;28;20042;-83
2021/01/30 01:21:04;;;;;;;21.42;4.22;;;;;;;11.47;68.25;98768.00;4994433;28;20034;-82
2021/01/30 01:23:30;;;;;;;23.45;4.43;;;;;;;11.42;68.50;98756.28;4993214;28;20022;-82
2021/01/30 01:25:55;;;;;;;25.65;4.45;;;;;;;11.46;68.17;98758.44;4994695;28;20034;-82
2021/01/30 01:28:21;;;;;;;25.30;5.05;;;;;;;11.37;67.88;98756.69;4994595;28;20038;-82
2021/01/30 01:30:46;;;;;;;20.60;4.55;;;;;;;11.28;69.20;98747.09;4993124;28;20023;-82
2021/01/30 01:33:11;;;;;;;34.50;6.47;;;;;;;11.10;68.95;98744.47;4994309;28;20054;-81
2021/01/30 01:35:37;;;;;;;25.33;4.47;;;;;;;11.03;69.39;98736.34;4994454;28;20104;-81
2021/01/30 01:38:02;;;;;;;21.05;4.50;;;;;;;11.16;69.48;98737.78;4994121;28;20109;-81
2021/01/30 01:40:38;;;;;;;21.83;4.25;;;;;;;10.91;69.61;98724.41;4994420;28;20085;-81
2021/01/30 01:43:09;;;;;;;22.40;4.50;;;;;;;11.20;68.77;98718.94;4994156;28;20023;-81
2021/01/30 01:45:35;;;;;;;19.77;4.50;;;;;;;11.23;68.66;98712.56;4994273;28;20033;-81
2021/01/30 01:48:06;;;;;;;18.63;4.22;;;;;;;11.07;69.34;98713.22;4994728;28;20109;-81
2021/01/30 01:50:39;;;;;;;23.43;5.07;;;;;;;11.26;68.08;98702.59;4994011;28;20285;-81
2021/01/30 01:53:30;;;;;;;27.17;4.97;;;;;;;11.09;69.17;98696.34;4993970;28;20363;-81
2021/01/30 01:56:02;;;;;;;30.20;6.85;;;;;;;10.69;70.22;98689.69;4993485;28;20046;-81
2021/01/30 01:58:30;;;;;;;;;;;;;;;10.80;70.33;98690.47;4994788;28;20026;-81
2021/01/30 02:00:56;;;;;;;22.63;7.28;;;;;;;10.83;70.09;98685.75;4994241;28;19918;-81
2021/01/30 02:03:23;;;;;;;21.90;5.55;;;;;;;10.60;70.25;98676.63;5008515;28;20113;-81
2021/01/30 02:05:48;;;;;;;18.90;4.47;;;;;;;10.57;70.48;98669.06;5013400;28;20026;-81
2021/01/30 02:08:17;;;;;;;13.35;3.83;;;;;;;10.68;69.54;98663.59;5013250;28;20153;-81
2021/01/30 02:10:45;;;;;;;17.77;3.83;;;;;;;10.41;69.97;98656.59;5009752;28;20030;-81
2021/01/30 02:13:15;;;;;;;19.60;4.05;;;;;;;10.56;70.61;98652.47;5000982;28;20081;-81
2021/01/30 02:15:47;;;;;;;22.13;4.65;;;;;;;10.37;70.72;98647.31;4993437;28;20055;-81
2021/01/30 02:18:42;;;;;;;17.58;3.22;;;;;;;10.29;71.71;98638.38;5003601;28;20026;-82
2021/01/30 02:21:22;;;;;;;19.63;3.10;;;;;;;10.22;71.53;98623.38;5013153;28;20433;-82
2021/01/30 02:24:18;;;;;;;12.65;3.35;;;;;;;10.30;71.05;98621.69;4998551;28;20073;-82
2021/01/30 02:26:43;;;;;;;9.07;2.70;;;;;;;10.22;70.87;98611.06;5012817;28;20491;-82
2021/01/30 02:29:37;;;;;;;9.25;2.67;;;;;;;10.17;70.75;98600.19;5011516;28;20030;-81
2021/01/30 02:32:05;;;;;;;14.85;2.88;;;;;;;10.32;70.79;98604.00;5011366;28;20484;-81
2021/01/30 02:34:36;;;;;;;12.93;2.78;;;;;;;10.37;70.94;98595.69;4993024;28;20022;-81
2021/01/30 02:37:11;;;;;;;15.63;3.30;;;;;;;10.32;70.97;98588.25;4991864;28;20034;-81
2021/01/30 02:39:39;;;;;;;16.80;4.63;;;;;;;10.19;71.28;98577.28;4999935;28;20022;-81
2021/01/30 02:42:11;;;;;;;18.00;3.42;;;;;;;10.36;70.37;98577.47;4992002;28;20056;-81
2021/01/30 02:44:43;;;;;;;12.38;2.13;;;;;;;10.28;70.52;98570.31;4993082;28;20031;-81
2021/01/30 02:47:14;;;;;;;12.48;2.63;;;;;;;10.24;70.17;98569.78;4993058;28;20049;-81
2021/01/30 02:49:44;;;;;;;9.23;2.38;;;;;;;9.97;71.01;98557.50;4993353;28;20388;-81
2021/01/30 02:52:17;;;;;;;11.00;2.03;;;;;;;10.20;70.04;98557.94;4992883;28;20037;-81
2021/01/30 02:54:42;;;;;;;11.25;3.58;;;;;;;10.16;69.52;98551.31;4992969;28;20035;-81
2021/01/30 02:57:10;;;;;;;11.30;2.13;;;;;;;9.95;70.27;98538.47;4992496;28;20026;-81
2021/01/30 02:59:43;;;;;;;9.77;1.63;;;;;;;9.67;71.29;98529.78;4992760;28;20031;-81
2021/01/30 03:02:09;;;;;;;9.95;1.70;;;;;;;9.78;70.94;98521.72;4992566;28;20472;-81
2021/01/30 03:04:36;;;;;;;11.25;2.50;;;;;;;9.56;71.49;98511.59;4992547;28;20037;-81
2021/01/30 03:07:22;;;;;;;13.00;2.13;;;;;;;9.43;72.30;98520.63;4992606;28;20026;-81
2021/01/30 03:10:00;;;;;;;12.15;1.88;;;;;;;9.87;70.92;98505.13;4992600;28;20348;-81
2021/01/30 03:12:33;;;;;;;10.68;2.17;;;;;;;9.77;70.97;98504.34;4992446;28;20117;-81
2021/01/30 03:15:06;;;;;;;15.27;2.17;;;;;;;9.59;72.28;98501.66;4992490;28;20056;-80
2021/01/30 03:17:32;;;;;;;12.23;2.55;;;;;;;9.48;71.75;98500.06;4992355;28;20030;-82
2021/01/30 03:20:00;;;;;;;11.05;2.38;;;;;;;9.73;71.11;98484.63;4992572;28;20030;-82
2021/01/30 03:22:29;;;;;;;8.05;2.00;;;;;;;9.81;71.00;98486.53;4998077;28;20460;-82
2021/01/30 03:24:55;;;;;;;6.00;1.88;;;;;;;9.47;71.82;98466.97;4992596;28;20028;-81
2021/01/30 03:27:23;;;;;;;10.20;1.58;;;;;;;9.51;71.92;98468.34;4992323;28;20085;-81
2021/01/30 03:29:50;;;;;;;8.55;1.40;;;;;;;9.59;71.29;98462.38;4992505;28;20060;-81
2021/01/30 03:32:15;;;;;;;13.95;1.70;;;;;;;9.48;71.61;98457.34;4992237;28;20435;-81
2021/01/30 03:34:40;;;;;;;9.13;1.90;;;;;;;9.58;71.39;98446.78;4992170;28;20022;-82
2021/01/30 03:37:06;;;;;;;10.88;1.75;;;;;;;9.74;70.80;98449.63;4992456;28;20057;-82
2021/01/30 03:39:31;;;;;;;6.53;1.50;;;;;;;9.58;72.03;98442.38;4992198;28;20023;-80
2021/01/30 03:41:56;;;;;;;6.50;1.40;;;;;;;9.68;72.06;98431.84;4992531;28;20026;-82
2021/01/30 03:44:22;;;;;;;5.82;1.08;;;;;;;9.45;72.55;98432.25;4992140;28;20023;-82
2021/01/30 03:46:47;;;;;;;5.65;1.25;;;;;;;9.49;72.22;98423.13;4993135;28;20057;-82
2021/01/30 03:49:12;;;;;;;11.15;1.48;;;;;;;9.59;71.68;98422.25;4996916;28;20022;-82
2021/01/30 03:51:38;;;;;;;10.07;1.60;;;;;;;9.43;72.34;98413.22;4997259;28;20034;-82
2021/01/30 03:54:03;;;;;;;6.63;1.05;;;;;;;9.31;72.00;98406.53;5004691;28;20072;-82
2021/01/30 03:56:29;;;;;;;5.97;1.35;;;;;;;9.43;71.46;98401.94;4996407;28;20026;-82
2021/01/30 03:58:54;;;;;;;4.68;1.15;;;;;;;9.52;70.88;98401.88;4994714;28;20022;-81
2021/01/30 04:01:19;;;;;;;5.38;0.73;;;;;;;9.67;70.85;98398.75;4996559;28;20076;-82
2021/01/30 04:03:48;;;;;;;4.80;1.08;;;;;;;9.37;71.06;98390.25;4996457;28;20236;-82
2021/01/30 04:06:15;;;;;;;5.85;1.00;;;;;;;9.09;71.25;98395.47;4996224;28;20029;-82
2021/01/30 04:08:40;;;;;;;6.32;1.27;;;;;;;9.50;70.22;98400.38;4995718;28;20033;-82
2021/01/30 04:11:06;;;;;;;7.15;1.00;;;;;;;9.54;70.64;98383.41;4995677;28;20023;-82
2021/01/30 04:13:32;;;;;;;3.80;0.70;;;;;;;9.06;72.09;98401.00;4995860;28;20050;-82
2021/01/30 04:15:57;;;;;;;4.70;0.98;;;;;;;9.06;72.51;98395.78;4995945;28;20468;-82
2021/01/30 04:18:23;;;;;;;6.10;0.93;;;;;;;9.11;72.14;98382.25;4995512;28;20176;-81
2021/01/30 04:20:48;;;;;;;5.75;0.80;;;;;;;9.37;71.12;98394.66;4994864;28;20088;-82
2021/01/30 04:23:13;;;;;;;7.20;1.13;;;;;;;9.37;71.77;98377.13;4995532;28;20034;-82
2021/01/30 04:25:39;;;;;;;5.78;0.93;;;;;;;9.12;72.06;98371.63;4995761;28;20027;-81
2021/01/30 04:28:05;;;;;;;3.17;0.65;;;;;;;9.21;71.10;98369.91;4995334;28;20026;-82
2021/01/30 04:30:31;;;;;;;4.30;0.90;;;;;;;9.09;70.87;98376.31;4995792;28;20033;-81
2021/01/30 04:32:57;;;;;;;5.40;0.70;;;;;;;8.97;71.08;98369.63;4995627;28;20030;-82
2021/01/30 04:35:27;;;;;;;5.20;0.95;;;;;;;9.17;71.25;98373.81;5008609;28;20025;-81
2021/01/30 04:37:53;;;;;;;5.45;0.52;;;;;;;8.95;72.12;98354.06;4995354;28;20026;-81
2021/01/30 04:40:27;;;;;;;3.55;0.68;;;;;;;8.89;71.75;98358.06;4995524;28;20032;-82
2021/01/30 04:43:28;;;;;;;2.85;0.65;;;;;;;9.01;71.40;98350.88;4995395;28;20027;-82
2021/01/30 04:45:56;;;;;;;2.33;0.80;;;;;;;8.66;72.73;98341.06;5001419;28;20377;-82
2021/01/30 04:48:37;;;;;;;2.63;0.50;;;;;;;8.88;71.77;98330.25;5004341;28;20117;-82
2021/01/30 04:51:21;;;;;;;0.73;0.43;;;;;;;8.68;72.34;98347.00;4995166;28;20030;-82
2021/01/30 04:54:01;;;;;;;3.65;0.70;;;;;;;8.83;72.17;98332.47;4995002;28;20038;-82
2021/01/30 04:56:53;;;;;;;1.13;0.40;;;;;;;8.67;72.98;98324.44;4995200;28;20081;-82
2021/01/30 04:59:30;;;;;;;4.95;0.50;;;;;;;8.53;73.46;98320.44;4994658;28;20026;-82
2021/01/30 05:02:04;;;;;;;13.75;0.63;;;;;;;8.67;72.81;98330.47;4994882;28;20396;-82
2021/01/30 05:04:36;;;;;;;3.40;0.60;;;;;;;8.73;72.29;98316.81;4994912;28;20245;-82
2021/01/30 05:07:09;;;;;;;1.52;0.38;;;;;;;8.67;72.39;98327.03;4995082;28;20035;-82
2021/01/30 05:09:53;;;;;;;5.72;0.82;;;;;;;8.52;73.67;98311.78;4995202;28;20022;-82
2021/01/30 05:12:58;;;;;;;4.68;0.63;;;;;;;8.59;73.52;98309.44;4995232;28;20381;-82
2021/01/30 05:15:30;;;;;;;2.97;0.70;;;;;;;8.55;73.68;98308.09;4994577;28;20044;-81
2021/01/30 05:18:01;;;;;;;;;;;;;;;8.45;73.60;98313.34;4998196;28;20091;-81
2021/01/30 05:20:32;;;;;;;3.30;1.52;;;;;;;8.34;74.11;98289.94;5014199;28;20460;-81
2021/01/30 05:22:59;;;;;;;4.18;0.50;;;;;;;8.37;73.82;98302.72;5013770;28;20068;-83
2021/01/30 05:25:25;;;;;;;1.58;0.60;;;;;;;8.48;73.36;98301.75;5013792;28;20034;-81
2021/01/30 05:28:22;;;;;;;2.03;0.52;;;;;;;8.60;73.99;98290.16;5014108;28;20376;-81
2021/01/30 05:31:04;;;;;;;2.03;0.60;;;;;;;8.55;73.42;98284.53;5013157;28;20053;-81
2021/01/30 05:33:51;;;;;;;1.42;0.30;;;;;;;8.94;71.40;98276.50;5013987;28;20112;-82
2021/01/30 05:36:26;;;;;;;2.95;0.40;;;;;;;8.47;73.26;98285.25;5013751;28;20025;-82
2021/01/30 05:39:01;;;;;;;3.03;0.38;;;;;;;8.70;73.55;98266.56;5013788;28;20022;-80
2021/01/30 05:41:57;;;;;;;2.10;0.80;;;;;;;8.58;73.78;98272.97;5013862;28;20026;-82
2021/01/30 05:44:36;;;;;;;3.53;0.77;;;;;;;8.47;73.88;98272.19;5012916;28;20044;-82
2021/01/30 05:47:02;;;;;;;3.53;0.85;;;;;;;8.35;74.53;98268.03;5012539;28;20040;-81
2021/01/30 05:49:32;;;;;;;0.68;0.50;;;;;;;8.43;73.78;98277.81;5012929;28;20026;-81
2021/01/30 05:52:10;;;;;;;3.25;0.68;;;;;;;8.27;74.33;98270.53;5012596;28;20450;-81
2021/01/30 05:54:35;;;;;;;4.40;0.60;;;;;;;8.22;74.55;98260.53;5013572;28;20061;-81
2021/01/30 05:57:01;;;;;;;2.08;0.52;;;;;;;8.21;74.58;98258.84;5013484;28;20060;-81
2021/01/30 05:59:29;;;;;;;2.25;0.60;;;;;;;8.26;74.69;98263.69;5006658;28;20484;-81
2021/01/30 06:02:17;;;;;;;2.67;0.60;;;;;;;8.28;75.14;98253.91;4993838;28;20026;-81
2021/01/30 06:04:42;;;;;;;1.85;0.38;;;;;;;8.08;75.42;98274.03;4993221;28;20057;-81
2021/01/30 06:07:25;;;;;;;1.52;0.30;;;;;;;8.28;74.83;98270.41;4993800;28;20436;-81
2021/01/30 06:09:50;;;;;;;3.33;0.65;;;;;;;8.41;74.25;98259.69;4993181;28;20026;-81
2021/01/30 06:12:23;;;;;;;3.53;0.50;;;;;;;8.54;74.26;98272.41;4993660;28;20034;-81
2021/01/30 06:14:49;;;;;;;2.95;0.60;;;;;;;8.43;74.27;98264.75;5002538;28;20025;-81
2021/01/30 06:17:30;;;;;;;3.92;0.52;;;;;;;8.28;74.94;98267.78;5013094;28;20038;-81
2021/01/30 06:20:03;;;;;;;7.28;1.95;;;;;;;8.20;74.89;98261.63;5012954;28;20028;-80
2021/01/30 06:22:28;;;;;;;4.38;0.70;;;;;;;8.30;75.09;98250.16;5013338;28;20030;-81
2021/01/30 06:24:53;;;;;;;5.15;0.63;;;;;;;8.40;74.40;98246.72;5012965;28;20491;-81
2021/01/30 06:27:30;;;;;;;2.05;0.50;;;;;;;8.44;74.12;98237.63;5013545;28;20054;-81
2021/01/30 06:30:00;;;;;;;5.32;0.65;;;;;;;8.38;75.12;98240.81;5011922;28;20057;-81
2021/01/30 06:32:37;;;;;;;3.63;0.80;;;;;;;8.25;74.49;98241.09;5013050;28;20037;-81
2021/01/30 06:35:10;;;;;;;2.10;0.60;;;;;;;8.31;74.74;98241.38;5012801;28;20033;-81
2021/01/30 06:37:43;;;;;;;3.85;0.70;;;;;;;8.20;75.01;98232.88;5013217;28;20038;-81
2021/01/30 06:40:19;;;;;;;3.55;0.85;;;;;;;8.34;74.56;98217.53;5010144;28;20033;-81
2021/01/30 06:42:47;;;;;;;6.55;0.75;;;;;;;8.37;74.25;98215.59;5007095;28;20551;-81
2021/01/30 06:45:24;;;;;;;5.60;1.10;;;;;;;8.53;74.24;98213.22;4992604;28;20033;-81
2021/01/30 06:47:51;;;;;;;5.80;0.82;;;;;;;8.58;72.99;98210.19;4993504;28;20026;-81
2021/01/30 06:50:33;;;;;;;4.70;0.98;;;;;;;8.41;73.73;98193.41;4993002;28;20440;-81
2021/01/30 06:53:13;;;;;;;7.32;1.63;;;;;;;8.27;74.86;98213.03;4992728;28;20030;-81
2021/01/30 06:55:39;;;;;;;5.00;0.90;;;;;;;8.36;74.61;98204.31;4993011;28;20022;-81
2021/01/30 06:58:06;;;;;;;4.78;0.90;;;;;;;8.36;74.40;98203.50;4992004;28;20437;-81
2021/01/30 07:00:36;;;;;;;2.88;0.52;;;;;;;8.11;74.93;98216.25;4992716;28;20026;-82
2021/01/30 07:03:28;;;;;;;2.58;0.63;;;;;;;8.27;74.08;98195.56;4997415;28;20052;-81
2021/01/30 07:06:15;;;;;;;7.53;0.77;;;;;;;8.61;73.28;98197.63;5011333;28;20112;-82
2021/01/30 07:09:06;;;;;;;5.07;0.90;;;;;;;8.30;74.22;98207.53;5012198;28;20030;-81
2021/01/30 07:11:54;;;;;;;2.90;0.50;;;;;;;8.40;73.88;98212.72;5011341;28;20473;-81
2021/01/30 07:14:32;;;;;;;7.90;1.15;;;;;;;8.65;73.22;98209.47;5008555;28;20026;-81
2021/01/30 07:17:18;;;;;;;5.75;0.80;;;;;;;8.67;73.14;98194.44;5008684;28;20073;-82
2021/01/30 07:19:43;;;;;;;2.78;0.63;;;;;;;8.33;74.01;98208.06;5001253;28;20029;-81
2021/01/30 07:22:20;;;;;;;6.13;0.73;;;;;;;8.48;73.46;98208.44;5011302;28;20065;-81
2021/01/30 07:24:51;;;;;;;6.07;0.80;;;;;;;8.65;73.31;98201.63;5007626;28;20200;-82
2021/01/30 07:27:32;;;;;;;3.50;0.70;;;;;;;8.60;73.02;98206.44;5001013;28;20476;-82
2021/01/30 07:30:04;;;;;;;1.75;0.40;;;;;;;8.47;73.25;98205.94;4996000;28;20109;-82
2021/01/30 07:32:40;;;;;;;5.63;0.70;;;;;;;8.67;72.76;98199.66;5011770;28;20031;-82
2021/01/30 07:35:11;;;;;;;7.00;0.77;;;;;;;8.65;72.84;98199.00;5011946;28;20037;-82
2021/01/30 07:37:51;;;;;;;2.15;0.50;;;;;;;8.51;73.36;98196.84;5011932;28;20034;-82
2021/01/30 07:40:24;;;;;;;2.65;0.70;;;;;;;8.67;72.96;98183.16;5003189;28;20038;-81
2021/01/30 07:42:54;;;;;;;8.48;0.80;;;;;;;8.73;72.72;98195.66;4999629;28;20563;-82
2021/01/30 07:45:24;;;;;;;5.38;0.85;;;;;;;8.68;72.94;98187.41;5006778;28;20345;-82
2021/01/30 07:48:15;;;;;;;4.07;0.85;;;;;;;8.36;73.73;98193.06;4999815;28;20481;-81
2021/01/30 07:50:44;;;;;;;4.65;0.63;;;;;;;8.51;74.10;98202.06;4998120;28;20034;-81
2021/01/30 07:53:28;;;;;;;6.93;1.05;;;;;;;8.30;74.08;98229.25;4997025;28;20022;-82
2021/01/30 07:56:08;;;;;;;2.67;0.57;;;;;;;8.60;73.83;98205.63;4997118;28;20038;-82
2021/01/30 07:58:40;;;;;;;5.75;0.65;;;;;;;8.84;72.96;98197.22;5002142;28;20137;-82
2021/01/30 08:01:34;;;;;;;1.65;0.40;;;;;;;8.49;73.27;98204.00;5011571;28;20099;-82
2021/01/30 08:04:05;;;;;;;6.93;0.93;;;;;;;8.49;73.60;98198.78;5009927;28;20118;-81
2021/01/30 08:06:52;;;;;;;3.97;0.70;;;;;;;8.70;73.32;98209.00;5011539;28;20034;-81
2021/01/30 08:09:25;;;;;;;3.28;0.60;;;;;;;8.46;73.59;98209.56;5001079;28;20022;-82
2021/01/30 08:12:08;;;;;;;3.58;0.50;;;;;;;8.66;73.44;98205.03;5010602;28;20485;-82
2021/01/30 08:14:48;;;;;;;5.25;1.02;;;;;;;8.41;74.00;98207.38;5002778;28;20022;-82
2021/01/30 08:17:16;;;;;;;3.60;0.60;;;;;;;8.76;73.01;98205.00;5002286;28;20072;-81
2021/01/30 08:20:26;;;;;;;7.80;0.68;;;;;;;8.61;73.66;98212.50;4994837;28;20492;-80
2021/01/30 08:23:04;;;;;;;2.13;0.60;;;;;;;8.35;74.34;98213.13;4997239;28;20060;-81
2021/01/30 08:25:42;;;;;;;3.28;0.55;;;;;;;8.61;73.82;98215.94;4995733;28;20146;-82
2021/01/30 08:28:20;;;;;;;2.60;0.55;;;;;;;8.38;74.26;98230.34;4991021;28;20031;-81
2021/01/30 08:30:51;;;;;;;2.72;0.90;;;;;;;8.83;73.66;98227.00;5005699;28;20026;-81
2021/01/30 08:33:17;;;;;;;3.58;0.50;;;;;;;8.71;74.04;98214.09;5001318;28;20381;-81
2021/01/30 08:35:47;;;;;;;3.45;0.40;;;;;;;8.83;72.87;98221.75;5001782;28;20027;-81
2021/01/30 08:38:16;;;;;;;4.22;0.90;;;;;;;8.77;74.04;98228.41;5002617;28;20026;-81
2021/01/30 08:40:45;;;;;;;4.18;0.50;;;;;;;8.89;73.99;98224.59;5007375;28;20034;-82
2021/01/30 08:43:43;;;;;;;2.58;0.50;;;;;;;8.98;73.73;98227.31;4998070;28;20026;-82
2021/01/30 08:46:21;;;;;;;2.70;0.60;;;;;;;9.13;72.34;98234.50;4999571;28;20432;-82
2021/01/30 08:49:00;;;;;;;2.45;0.52;;;;;;;8.78;73.72;98229.22;4995788;28;20145;-82
2021/01/30 08:51:30;;;;;;;4.28;0.80;;;;;;;8.97;72.53;98229.09;4994971;28;20033;-82
2021/01/30 08:53:58;;;;;;;0.47;0.38;;;;;;;9.12;73.15;98232.03;4995136;28;20103;-82
2021/01/30 08:57:00;;;;;;;2.38;0.63;;;;;;;8.72;74.19;98233.22;5011048;28;20067;-82
2021/01/30 08:59:49;;;;;;;4.05;0.75;;;;;;;8.90;73.55;98226.22;4997765;28;20169;-81
2021/01/30 09:02:27;;;;;;;3.25;0.55;;;;;;;8.89;74.03;98229.84;5002609;28;20065;-81
2021/01/30 09:05:06;;;;;;;2.28;0.70;;;;;;;8.99;73.30;98242.88;5004992;28;20085;-82
2021/01/30 09:07:34;;;;;;;2.58;0.88;;;;;;;8.81;74.17;98234.97;5005087;28;20507;-81
2021/01/30 09:10:31;;;;;;;3.40;0.57;;;;;;;9.25;72.20;98226.44;4999867;28;20104;-82
2021/01/30 09:13:12;;;;;;;2.42;0.65;;;;;;;9.26;72.88;98228.06;5001452;28;20050;-82
2021/01/30 09:15:37;;;;;;;3.53;0.95;;;;;;;9.24;72.53;98232.63;5000346;28;20047;-82
2021/01/30 09:18:16;;;;;;;1.40;0.60;;;;;;;8.97;73.59;98220.44;5001317;28;20110;-82
2021/01/30 09:21:02;;;;;;;2.72;0.68;;;;;;;9.00;73.77;98220.94;5014048;28;20026;-82
2021/01/30 09:23:40;;;;;;;1.25;0.60;;;;;;;9.15;73.22;98209.97;5001831;28;20439;-82
2021/01/30 09:26:12;;;;;;;1.65;0.65;;;;;;;9.00;74.11;98213.09;4995479;28;20038;-82
2021/01/30 09:28:37;;;;;;;1.20;0.57;;;;;;;8.98;73.19;98208.97;4994439;28;20026;-82
2021/01/30 09:31:09;;;;;;;1.77;0.57;;;;;;;9.17;73.37;98208.03;4998006;28;20495;-82
2021/01/30 09:33:40;;;;;;;2.05;0.98;;;;;;;8.81;74.17;98208.00;4995434;28;20033;-82
2021/01/30 09:36:13;;;;;;;1.15;0.40;;;;;;;8.91;73.98;98211.38;4994446;28;20431;-82
2021/01/30 09:38:44;;;;;;;1.55;0.50;;;;;;;9.21;72.71;98209.38;4997935;28;20030;-82
2021/01/30 09:41:20;;;;;;;1.23;0.63;;;;;;;9.03;72.84;98214.59;5004747;28;20041;-82
2021/01/30 09:43:46;;;;;;;1.92;0.57;;;;;;;8.85;73.85;98212.78;4999323;28;20034;-82
2021/01/30 09:46:21;;;;;;;0.95;0.30;;;;;;;9.20;72.69;98212.97;5004281;28;20077;-82
2021/01/30 09:48:49;;;;;;;1.75;0.55;;;;;;;9.01;73.03;98209.50;5004350;28;20048;-82
2021/01/30 09:51:14;;;;;;;2.72;0.45;;;;;;;8.77;73.93;98227.56;5001015;28;20064;-82
2021/01/30 09:53:57;;;;;;;1.67;0.90;;;;;;;9.30;72.54;98205.84;5000606;28;20430;-82
2021/01/30 09:56:23;;;;;;;0.60;0.50;;;;;;;9.17;72.85;98219.31;4993927;28;20030;-83
2021/01/30 09:58:57;;;;;;;1.05;0.50;;;;;;;9.23;72.36;98223.16;5004232;28;20030;-82
2021/01/30 10:01:28;;;;;;;2.38;0.60;;;;;;;8.92;72.87;98221.66;5002187;28;20033;-83
2021/01/30 10:03:53;;;;;;;1.80;0.67;;;;;;;8.72;73.88;98217.53;4994067;28;20030;-82
2021/01/30 10:06:29;;;;;;;1.60;0.60;;;;;;;8.99;73.74;98216.69;4998629;28;20033;-83
2021/01/30 10:09:07;;;;;;;2.58;0.57;;;;;;;8.97;72.91;98208.16;5001580;28;20027;-82
2021/01/30 10:11:34;;;;;;;3.00;0.60;;;;;;;9.17;73.06;98210.66;5000007;28;20026;-82
2021/01/30 10:14:00;;;;;;;2.05;0.73;;;;;;;9.09;73.12;98212.22;4996647;28;20025;-82
2021/01/30 10:16:27;;;;;;;3.13;0.60;;;;;;;9.57;71.46;98214.59;5001402;28;20121;-82
2021/01/30 10:19:18;;;;;;;1.63;0.60;;;;;;;9.36;71.81;98210.50;4994994;28;20106;-82
2021/01/30 10:21:44;;;;;;;1.08;0.63;;;;;;;9.03;72.55;98212.81;5002381;28;20046;-82
2021/01/30 10:24:18;;;;;;;3.25;0.60;;;;;;;9.36;72.56;98218.38;4994401;28;20041;-82
2021/01/30 10:26:43;;;;;;;6.03;0.50;;;;;;;9.46;71.72;98213.06;4998542;28;20092;-82
2021/01/30 10:29:16;;;;;;;1.30;0.50;;;;;;;9.48;71.99;98222.41;5008627;28;20026;-82
2021/01/30 10:31:48;;;;;;;0.80;0.60;;;;;;;9.38;71.88;98216.41;5002921;28;20034;-82
2021/01/30 10:34:16;;;;;;;;;;;;;;;9.28;72.87;98224.34;4996835;28;20030;-82
2021/01/30 10:36:50;;;;;;;0.60;0.38;;;;;;;9.27;72.09;98219.25;4995491;28;20376;-82
2021/01/30 10:39:16;;;;;;;2.13;1.70;;;;;;;9.41;72.17;98228.38;5009928;28;20464;-82
2021/01/30 10:41:42;;;;;;;1.83;0.65;;;;;;;9.24;72.08;98219.53;5005735;28;20058;-83
2021/01/30 10:44:10;;;;;;;2.72;1.13;;;;;;;9.18;72.68;98213.09;4994810;28;20027;-82
2021/01/30 10:46:41;;;;;;;0.55;0.40;;;;;;;9.27;72.60;98227.09;5005787;28;20109;-83
2021/01/30 10:49:19;;;;;;;1.17;0.82;;;;;;;9.18;72.74;98222.75;5001709;28;20297;-81
2021/01/30 10:51:45;;;;;;;2.92;0.60;;;;;;;9.09;73.08;98227.91;4995979;28;20026;-80
2021/01/30 10:54:30;;;;;;;1.27;0.52;;;;;;;9.33;72.21;98224.69;5001969;28;20362;-81
2021/01/30 10:57:17;;;;;;;1.27;0.38;;;;;;;9.23;73.04;98202.19;5002768;28;20042;-81
2021/01/30 10:59:57;;;;;;;0.95;0.38;;;;;;;9.56;72.33;98215.56;4994303;28;20472;-80
2021/01/30 11:02:35;;;;;;;2.20;0.50;;;;;;;9.39;72.52;98220.66;4996511;28;20034;-80
2021/01/30 11:05:12;;;;;;;0.38;0.20;;;;;;;9.50;71.54;98212.59;5008355;28;20071;-81
2021/01/30 11:07:40;;;;;;;0.88;0.32;;;;;;;9.55;71.73;98213.94;5012151;28;20032;-80
2021/01/30 11:10:17;;;;;;;0.80;0.40;;;;;;;9.29;72.37;98215.50;5000222;28;20128;-81
2021/01/30 11:12:42;;;;;;;1.02;0.63;;;;;;;9.19;72.79;98237.50;4996702;28;20038;-80
2021/01/30 11:15:22;;;;;;;0.68;0.25;;;;;;;9.37;72.72;98229.66;5005334;28;20071;-81
2021/01/30 11:17:48;;;;;;;0.47;0.30;;;;;;;8.87;73.66;98228.34;5007836;28;20026;-83
2021/01/30 11:20:41;;;;;;;0.50;0.40;;;;;;;9.38;72.01;98229.50;5001415;28;20472;-81
2021/01/30 11:23:07;;;;;;;0.68;0.40;;;;;;;9.36;72.11;98215.75;4997636;28;20034;-78
2021/01/30 11:25:40;;;;;;;1.13;0.55;;;;;;;9.12;72.13;98217.16;4995110;28;20105;-82
2021/01/30 11:28:08;;;;;;;3.80;1.65;;;;;;;9.33;71.79;98213.41;5003574;28;20465;-79
2021/01/30 11:30:34;;;;;;;0.88;0.30;;;;;;;9.13;72.25;98217.97;4993344;28;20034;-79
2021/01/30 11:33:14;;;;;;;0.63;0.30;;;;;;;9.65;71.13;98222.50;5002012;28;20033;-79
2021/01/30 11:35:45;;;;;;;0.80;0.38;;;;;;;9.34;72.33;98230.78;5008400;28;20403;-85
2021/01/30 11:38:16;;;;;;;0.40;0.30;;;;;;;9.47;71.22;98222.53;5009812;28;20057;-81
2021/01/30 11:40:41;;;;;;;0.30;0.30;;;;;;;9.20;72.28;98231.28;4997769;28;20034;-83
2021/01/30 11:43:08;;;;;;;0.50;0.50;;;;;;;8.92;72.76;98254.88;4996979;28;20415;-82
2021/01/30 11:45:33;;;;;;;1.08;0.40;;;;;;;9.23;71.50;98221.34;5011393;28;20018;-82
2021/01/30 11:47:58;;;;;;;0.68;0.45;;;;;;;9.04;72.20;98209.19;5006825;28;20420;-94
2021/01/30 11:50:24;;;;;;;2.72;0.50;;;;;;;9.04;70.98;98219.66;4998491;28;20369;-88
2021/01/30 11:52:49;;;;;;;0.60;0.47;;;;;;;8.86;72.52;98231.91;5010869;28;20358;-84
2021/01/30 11:55:15;;;;;;;0.80;0.50;;;;;;;8.42;73.19;98226.50;5008255;28;20101;-86
2021/01/30 11:57:40;;;;;;;0.70;0.70;;;;;;;8.96;71.81;98227.44;5012110;28;20054;-86
2021/01/30 12:00:08;;;;;;;1.00;0.50;;;;;;;8.52;72.71;98235.94;5004447;28;20030;-86
2021/01/30 12:02:36;;;;;;;0.82;0.40;;;;;;;8.87;72.06;98233.56;4993456;28;20034;-80